sensor_id;sensor_type;location;lat;lon;timestamp;P1;durP1;ratioP1;P2;durP2;ratioP2
12163;SDS011;6145;50.192;10.064;2024-01-06T00:26:06;3.23;;;2.93;;
12163;SDS011;6145;50.192;10.064;2024-01-06T00:28:33;4.00;;;3.07;;
12163;SDS011;6145;50.192;10.064;2024-01-06T00:31:00;5.17;;;3.37;;
12163;SDS011;6145;50.192;10.064;2024-01-06T00:33:26;3.40;;;2.80;;
12163;SDS011;6145;50.192;10.064;2024-01-06T00:35:53;4.77;;;3.47;;
12163;SDS011;6145;50.192;10.064;2024-01-06T00:38:21;7.63;;;3.70;;
12163;SDS011;6145;50.192;10.064;2024-01-06T00:40:47;5.23;;;3.10;;
12163;SDS011;6145;50.192;10.064;2024-01-06T00:43:19;6.03;;;3.20;;
12163;SDS011;6145;50.192;10.064;2024-01-06T00:45:45;4.80;;;2.63;;
12163;SDS011;6145;50.192;10.064;2024-01-06T00:48:13;3.93;;;2.53;;
12163;SDS011;6145;50.192;10.064;2024-01-06T00:50:40;8.17;;;3.27;;
12163;SDS011;6145;50.192;10.064;2024-01-06T00:53:06;4.70;;;3.00;;
12163;SDS011;6145;50.192;10.064;2024-01-06T00:55:33;5.97;;;3.13;;
12163;SDS011;6145;50.192;10.064;2024-01-06T00:58:00;7.73;;;3.67;;
12163;SDS011;6145;50.192;10.064;2024-01-06T01:00:28;5.07;;;2.83;;
12163;SDS011;6145;50.192;10.064;2024-01-06T01:02:55;7.03;;;3.63;;
12163;SDS011;6145;50.192;10.064;2024-01-06T01:05:22;3.80;;;3.07;;
12163;SDS011;6145;50.192;10.064;2024-01-06T01:07:48;3.33;;;2.67;;
12163;SDS011;6145;50.192;10.064;2024-01-06T01:12:45;4.27;;;2.43;;
12163;SDS011;6145;50.192;10.064;2024-01-06T01:15:12;5.63;;;2.40;;
12163;SDS011;6145;50.192;10.064;2024-01-06T01:17:40;3.53;;;2.50;;
12163;SDS011;6145;50.192;10.064;2024-01-06T01:20:08;2.80;;;2.43;;
12163;SDS011;6145;50.192;10.064;2024-01-06T01:22:35;4.17;;;2.33;;
12163;SDS011;6145;50.192;10.064;2024-01-06T01:25:02;3.70;;;2.63;;
12163;SDS011;6145;50.192;10.064;2024-01-06T01:27:32;7.17;;;3.70;;
12163;SDS011;6145;50.192;10.064;2024-01-06T01:29:59;4.93;;;3.40;;
12163;SDS011;6145;50.192;10.064;2024-01-06T01:32:26;7.30;;;3.30;;
12163;SDS011;6145;50.192;10.064;2024-01-06T01:34:54;7.70;;;3.63;;
12163;SDS011;6145;50.192;10.064;2024-01-06T01:37:21;7.07;;;3.77;;
12163;SDS011;6145;50.192;10.064;2024-01-06T01:39:47;4.33;;;3.20;;
12163;SDS011;6145;50.192;10.064;2024-01-06T01:42:14;4.50;;;3.20;;
12163;SDS011;6145;50.192;10.064;2024-01-06T01:44:41;5.23;;;3.57;;
12163;SDS011;6145;50.192;10.064;2024-01-06T01:47:08;5.27;;;3.77;;
12163;SDS011;6145;50.192;10.064;2024-01-06T01:49:35;7.03;;;3.33;;
12163;SDS011;6145;50.192;10.064;2024-01-06T01:52:03;6.80;;;4.13;;
12163;SDS011;6145;50.192;10.064;2024-01-06T01:54:30;6.77;;;3.90;;
12163;SDS011;6145;50.192;10.064;2024-01-06T01:56:57;7.13;;;4.10;;
12163;SDS011;6145;50.192;10.064;2024-01-06T01:59:24;6.87;;;3.93;;
12163;SDS011;6145;50.192;10.064;2024-01-06T02:01:51;7.03;;;4.10;;
12163;SDS011;6145;50.192;10.064;2024-01-06T02:04:18;7.60;;;4.33;;
12163;SDS011;6145;50.192;10.064;2024-01-06T02:06:44;9.83;;;3.90;;
12163;SDS011;6145;50.192;10.064;2024-01-06T02:09:13;10.20;;;4.40;;
12163;SDS011;6145;50.192;10.064;2024-01-06T02:11:42;8.50;;;4.00;;
12163;SDS011;6145;50.192;10.064;2024-01-06T02:14:09;6.53;;;3.77;;
12163;SDS011;6145;50.192;10.064;2024-01-06T02:16:36;8.73;;;4.17;;
12163;SDS011;6145;50.192;10.064;2024-01-06T02:19:03;9.50;;;4.67;;
12163;SDS011;6145;50.192;10.064;2024-01-06T02:21:30;6.40;;;3.80;;
12163;SDS011;6145;50.192;10.064;2024-01-06T02:24:01;17.23;;;4.73;;
12163;SDS011;6145;50.192;10.064;2024-01-06T02:26:28;14.20;;;3.53;;
12163;SDS011;6145;50.192;10.064;2024-01-06T02:28:55;20.77;;;4.53;;
12163;SDS011;6145;50.192;10.064;2024-01-06T02:31:22;10.00;;;3.80;;
12163;SDS011;6145;50.192;10.064;2024-01-06T02:33:49;11.83;;;3.83;;
12163;SDS011;6145;50.192;10.064;2024-01-06T02:36:15;6.23;;;3.90;;
12163;SDS011;6145;50.192;10.064;2024-01-06T02:38:42;7.80;;;4.20;;
12163;SDS011;6145;50.192;10.064;2024-01-06T02:41:10;6.27;;;3.70;;
12163;SDS011;6145;50.192;10.064;2024-01-06T02:43:37;5.17;;;3.77;;
12163;SDS011;6145;50.192;10.064;2024-01-06T02:46:04;4.07;;;3.10;;
12163;SDS011;6145;50.192;10.064;2024-01-06T02:48:31;4.17;;;2.93;;
12163;SDS011;6145;50.192;10.064;2024-01-06T02:50:57;3.27;;;2.80;;
12163;SDS011;6145;50.192;10.064;2024-01-06T02:53:24;3.20;;;2.90;;
12163;SDS011;6145;50.192;10.064;2024-01-06T02:55:51;5.27;;;3.40;;
12163;SDS011;6145;50.192;10.064;2024-01-06T02:58:19;7.60;;;3.97;;
12163;SDS011;6145;50.192;10.064;2024-01-06T03:00:46;5.13;;;4.17;;
12163;SDS011;6145;50.192;10.064;2024-01-06T03:03:12;5.00;;;3.40;;
12163;SDS011;6145;50.192;10.064;2024-01-06T03:09:02;5.20;;;4.53;;
12163;SDS011;6145;50.192;10.064;2024-01-06T03:11:29;6.50;;;4.80;;
12163;SDS011;6145;50.192;10.064;2024-01-06T03:13:57;5.60;;;4.40;;
12163;SDS011;6145;50.192;10.064;2024-01-06T03:16:24;6.10;;;4.47;;
12163;SDS011;6145;50.192;10.064;2024-01-06T03:18:50;6.57;;;4.33;;
12163;SDS011;6145;50.192;10.064;2024-01-06T03:21:17;5.13;;;3.73;;
12163;SDS011;6145;50.192;10.064;2024-01-06T03:23:44;6.20;;;4.63;;
12163;SDS011;6145;50.192;10.064;2024-01-06T03:26:11;6.50;;;5.07;;
12163;SDS011;6145;50.192;10.064;2024-01-06T03:28:38;5.27;;;4.37;;
12163;SDS011;6145;50.192;10.064;2024-01-06T03:31:06;11.07;;;5.77;;
12163;SDS011;6145;50.192;10.064;2024-01-06T03:33:33;11.70;;;5.23;;
12163;SDS011;6145;50.192;10.064;2024-01-06T03:36:03;9.47;;;5.70;;
12163;SDS011;6145;50.192;10.064;2024-01-06T03:38:31;9.00;;;5.23;;
12163;SDS011;6145;50.192;10.064;2024-01-06T03:40:57;7.93;;;5.60;;
12163;SDS011;6145;50.192;10.064;2024-01-06T03:43:24;7.03;;;5.17;;
12163;SDS011;6145;50.192;10.064;2024-01-06T03:45:51;6.20;;;4.80;;
12163;SDS011;6145;50.192;10.064;2024-01-06T03:48:21;5.80;;;4.57;;
12163;SDS011;6145;50.192;10.064;2024-01-06T03:50:48;6.93;;;4.90;;
12163;SDS011;6145;50.192;10.064;2024-01-06T03:53:15;6.20;;;4.57;;
12163;SDS011;6145;50.192;10.064;2024-01-06T03:55:42;5.47;;;4.00;;
12163;SDS011;6145;50.192;10.064;2024-01-06T04:01:33;5.03;;;3.87;;
12163;SDS011;6145;50.192;10.064;2024-01-06T04:04:02;4.80;;;3.57;;
12163;SDS011;6145;50.192;10.064;2024-01-06T04:06:29;3.80;;;3.00;;
12163;SDS011;6145;50.192;10.064;2024-01-06T04:08:56;5.23;;;3.03;;
12163;SDS011;6145;50.192;10.064;2024-01-06T04:11:23;2.97;;;2.67;;
12163;SDS011;6145;50.192;10.064;2024-01-06T04:13:50;5.03;;;3.33;;
12163;SDS011;6145;50.192;10.064;2024-01-06T04:16:16;6.13;;;3.20;;
12163;SDS011;6145;50.192;10.064;2024-01-06T04:18:43;4.03;;;3.20;;
12163;SDS011;6145;50.192;10.064;2024-01-06T04:21:12;4.03;;;2.93;;
12163;SDS011;6145;50.192;10.064;2024-01-06T04:23:39;5.47;;;3.60;;
12163;SDS011;6145;50.192;10.064;2024-01-06T04:26:05;4.33;;;3.70;;
12163;SDS011;6145;50.192;10.064;2024-01-06T04:28:32;5.13;;;3.70;;
12163;SDS011;6145;50.192;10.064;2024-01-06T04:30:59;5.37;;;3.63;;
12163;SDS011;6145;50.192;10.064;2024-01-06T04:33:26;5.67;;;3.60;;
12163;SDS011;6145;50.192;10.064;2024-01-06T04:35:53;5.20;;;3.20;;
12163;SDS011;6145;50.192;10.064;2024-01-06T04:38:21;4.57;;;3.30;;
12163;SDS011;6145;50.192;10.064;2024-01-06T04:40:48;5.30;;;4.13;;
12163;SDS011;6145;50.192;10.064;2024-01-06T04:43:14;4.20;;;3.80;;
12163;SDS011;6145;50.192;10.064;2024-01-06T04:45:41;5.37;;;3.70;;
12163;SDS011;6145;50.192;10.064;2024-01-06T04:48:08;9.13;;;5.63;;
12163;SDS011;6145;50.192;10.064;2024-01-06T04:50:35;7.83;;;5.70;;
12163;SDS011;6145;50.192;10.064;2024-01-06T04:53:02;5.30;;;4.80;;
12163;SDS011;6145;50.192;10.064;2024-01-06T04:55:30;6.03;;;4.73;;
12163;SDS011;6145;50.192;10.064;2024-01-06T04:57:57;19.37;;;5.67;;
12163;SDS011;6145;50.192;10.064;2024-01-06T05:00:23;11.60;;;6.23;;
12163;SDS011;6145;50.192;10.064;2024-01-06T05:02:51;30.10;;;6.40;;
12163;SDS011;6145;50.192;10.064;2024-01-06T05:05:17;7.30;;;4.97;;
12163;SDS011;6145;50.192;10.064;2024-01-06T05:07:44;5.53;;;5.03;;
12163;SDS011;6145;50.192;10.064;2024-01-06T05:10:11;18.47;;;5.87;;
12163;SDS011;6145;50.192;10.064;2024-01-06T05:12:39;17.90;;;6.07;;
12163;SDS011;6145;50.192;10.064;2024-01-06T05:15:06;12.03;;;6.03;;
12163;SDS011;6145;50.192;10.064;2024-01-06T05:17:34;12.90;;;6.67;;
12163;SDS011;6145;50.192;10.064;2024-01-06T05:20:00;13.87;;;6.37;;
12163;SDS011;6145;50.192;10.064;2024-01-06T05:22:28;28.17;;;7.50;;
12163;SDS011;6145;50.192;10.064;2024-01-06T05:24:55;44.67;;;9.20;;
12163;SDS011;6145;50.192;10.064;2024-01-06T05:27:22;33.20;;;8.87;;
12163;SDS011;6145;50.192;10.064;2024-01-06T05:29:50;31.77;;;9.10;;
12163;SDS011;6145;50.192;10.064;2024-01-06T05:32:17;35.03;;;8.10;;
12163;SDS011;6145;50.192;10.064;2024-01-06T05:34:43;27.53;;;8.40;;
12163;SDS011;6145;50.192;10.064;2024-01-06T05:37:10;25.90;;;8.43;;
12163;SDS011;6145;50.192;10.064;2024-01-06T05:39:37;23.73;;;7.67;;
12163;SDS011;6145;50.192;10.064;2024-01-06T05:42:04;20.63;;;7.50;;
12163;SDS011;6145;50.192;10.064;2024-01-06T05:44:34;8.73;;;6.63;;
12163;SDS011;6145;50.192;10.064;2024-01-06T05:47:03;14.57;;;7.20;;
12163;SDS011;6145;50.192;10.064;2024-01-06T05:49:30;21.20;;;6.97;;
12163;SDS011;6145;50.192;10.064;2024-01-06T05:51:56;20.43;;;6.70;;
12163;SDS011;6145;50.192;10.064;2024-01-06T05:54:24;8.03;;;6.40;;
12163;SDS011;6145;50.192;10.064;2024-01-06T05:56:50;11.43;;;7.00;;
12163;SDS011;6145;50.192;10.064;2024-01-06T05:59:17;9.80;;;6.33;;
12163;SDS011;6145;50.192;10.064;2024-01-06T06:01:44;9.97;;;6.43;;
12163;SDS011;6145;50.192;10.064;2024-01-06T06:04:12;7.50;;;6.27;;
12163;SDS011;6145;50.192;10.064;2024-01-06T06:06:39;6.97;;;6.20;;
12163;SDS011;6145;50.192;10.064;2024-01-06T06:09:06;7.93;;;6.40;;
12163;SDS011;6145;50.192;10.064;2024-01-06T06:11:33;7.53;;;6.13;;
12163;SDS011;6145;50.192;10.064;2024-01-06T06:14:00;7.67;;;6.37;;
12163;SDS011;6145;50.192;10.064;2024-01-06T06:16:28;7.33;;;5.43;;
12163;SDS011;6145;50.192;10.064;2024-01-06T06:18:55;7.37;;;5.87;;
12163;SDS011;6145;50.192;10.064;2024-01-06T06:21:23;6.93;;;5.90;;
12163;SDS011;6145;50.192;10.064;2024-01-06T06:23:50;6.13;;;5.53;;
12163;SDS011;6145;50.192;10.064;2024-01-06T06:26:16;7.77;;;5.63;;
12163;SDS011;6145;50.192;10.064;2024-01-06T06:28:43;7.17;;;6.23;;
12163;SDS011;6145;50.192;10.064;2024-01-06T06:31:10;8.40;;;6.63;;
12163;SDS011;6145;50.192;10.064;2024-01-06T06:33:37;7.10;;;6.17;;
12163;SDS011;6145;50.192;10.064;2024-01-06T06:36:04;7.37;;;6.67;;
12163;SDS011;6145;50.192;10.064;2024-01-06T06:38:32;6.60;;;6.00;;
12163;SDS011;6145;50.192;10.064;2024-01-06T06:40:59;7.03;;;5.70;;
12163;SDS011;6145;50.192;10.064;2024-01-06T06:43:26;7.20;;;6.40;;
12163;SDS011;6145;50.192;10.064;2024-01-06T06:45:53;6.63;;;5.40;;
12163;SDS011;6145;50.192;10.064;2024-01-06T06:48:21;5.87;;;4.73;;
12163;SDS011;6145;50.192;10.064;2024-01-06T06:50:48;6.73;;;5.53;;
12163;SDS011;6145;50.192;10.064;2024-01-06T06:53:15;8.00;;;7.13;;
12163;SDS011;6145;50.192;10.064;2024-01-06T06:55:43;7.50;;;6.27;;
12163;SDS011;6145;50.192;10.064;2024-01-06T06:58:09;6.63;;;5.93;;
12163;SDS011;6145;50.192;10.064;2024-01-06T07:00:37;8.40;;;7.50;;
12163;SDS011;6145;50.192;10.064;2024-01-06T07:03:04;8.73;;;7.50;;
12163;SDS011;6145;50.192;10.064;2024-01-06T07:05:31;10.13;;;7.90;;
12163;SDS011;6145;50.192;10.064;2024-01-06T07:07:59;8.10;;;6.77;;
12163;SDS011;6145;50.192;10.064;2024-01-06T07:10:31;10.10;;;6.90;;
12163;SDS011;6145;50.192;10.064;2024-01-06T07:13:20;8.30;;;7.07;;
12163;SDS011;6145;50.192;10.064;2024-01-06T07:15:47;6.57;;;5.83;;
12163;SDS011;6145;50.192;10.064;2024-01-06T07:18:16;7.00;;;6.30;;
12163;SDS011;6145;50.192;10.064;2024-01-06T07:20:44;7.67;;;6.37;;
12163;SDS011;6145;50.192;10.064;2024-01-06T07:23:11;8.73;;;6.27;;
12163;SDS011;6145;50.192;10.064;2024-01-06T07:25:38;7.20;;;6.50;;
12163;SDS011;6145;50.192;10.064;2024-01-06T07:28:15;7.20;;;6.27;;
12163;SDS011;6145;50.192;10.064;2024-01-06T07:30:43;7.23;;;6.03;;
12163;SDS011;6145;50.192;10.064;2024-01-06T07:33:10;6.23;;;5.60;;
12163;SDS011;6145;50.192;10.064;2024-01-06T07:35:37;5.87;;;5.23;;
12163;SDS011;6145;50.192;10.064;2024-01-06T07:38:07;6.23;;;5.63;;
12163;SDS011;6145;50.192;10.064;2024-01-06T07:40:35;6.53;;;5.77;;
12163;SDS011;6145;50.192;10.064;2024-01-06T07:43:02;6.50;;;5.57;;
12163;SDS011;6145;50.192;10.064;2024-01-06T07:45:29;5.70;;;5.10;;
12163;SDS011;6145;50.192;10.064;2024-01-06T07:47:58;6.73;;;5.83;;
12163;SDS011;6145;50.192;10.064;2024-01-06T07:50:24;7.87;;;5.97;;
12163;SDS011;6145;50.192;10.064;2024-01-06T07:52:51;7.10;;;6.13;;
12163;SDS011;6145;50.192;10.064;2024-01-06T07:55:18;6.37;;;5.70;;
12163;SDS011;6145;50.192;10.064;2024-01-06T07:57:45;7.17;;;5.83;;
12163;SDS011;6145;50.192;10.064;2024-01-06T08:00:12;7.37;;;6.27;;
12163;SDS011;6145;50.192;10.064;2024-01-06T08:02:40;7.00;;;4.83;;
12163;SDS011;6145;50.192;10.064;2024-01-06T08:05:08;6.53;;;5.10;;
12163;SDS011;6145;50.192;10.064;2024-01-06T08:07:35;5.10;;;4.53;;
12163;SDS011;6145;50.192;10.064;2024-01-06T08:10:03;7.20;;;5.07;;
12163;SDS011;6145;50.192;10.064;2024-01-06T08:12:30;5.87;;;4.57;;
12163;SDS011;6145;50.192;10.064;2024-01-06T08:14:57;6.20;;;5.07;;
12163;SDS011;6145;50.192;10.064;2024-01-06T08:17:24;7.53;;;5.30;;
12163;SDS011;6145;50.192;10.064;2024-01-06T08:19:51;8.23;;;6.03;;
12163;SDS011;6145;50.192;10.064;2024-01-06T08:22:19;8.37;;;6.30;;
12163;SDS011;6145;50.192;10.064;2024-01-06T08:24:46;7.77;;;5.13;;
12163;SDS011;6145;50.192;10.064;2024-01-06T08:27:13;6.40;;;5.37;;
12163;SDS011;6145;50.192;10.064;2024-01-06T08:29:40;10.73;;;7.53;;
12163;SDS011;6145;50.192;10.064;2024-01-06T08:32:07;9.27;;;6.50;;
12163;SDS011;6145;50.192;10.064;2024-01-06T08:34:35;12.57;;;8.37;;
12163;SDS011;6145;50.192;10.064;2024-01-06T08:37:01;9.43;;;6.23;;
12163;SDS011;6145;50.192;10.064;2024-01-06T08:39:30;8.87;;;7.07;;
12163;SDS011;6145;50.192;10.064;2024-01-06T08:41:57;10.90;;;7.43;;
12163;SDS011;6145;50.192;10.064;2024-01-06T08:44:24;8.10;;;6.87;;
12163;SDS011;6145;50.192;10.064;2024-01-06T08:46:51;8.37;;;6.37;;
12163;SDS011;6145;50.192;10.064;2024-01-06T08:49:18;7.17;;;6.37;;
12163;SDS011;6145;50.192;10.064;2024-01-06T08:51:44;6.77;;;5.60;;
12163;SDS011;6145;50.192;10.064;2024-01-06T08:54:11;7.93;;;6.30;;
12163;SDS011;6145;50.192;10.064;2024-01-06T08:56:39;8.10;;;6.10;;
12163;SDS011;6145;50.192;10.064;2024-01-06T08:59:06;7.27;;;5.63;;
12163;SDS011;6145;50.192;10.064;2024-01-06T09:01:33;8.50;;;6.23;;
12163;SDS011;6145;50.192;10.064;2024-01-06T09:04:01;8.83;;;6.03;;
12163;SDS011;6145;50.192;10.064;2024-01-06T09:06:28;10.10;;;6.10;;
12163;SDS011;6145;50.192;10.064;2024-01-06T09:08:54;11.93;;;6.50;;
12163;SDS011;6145;50.192;10.064;2024-01-06T09:11:21;10.87;;;7.87;;
12163;SDS011;6145;50.192;10.064;2024-01-06T09:13:50;8.03;;;7.03;;
12163;SDS011;6145;50.192;10.064;2024-01-06T09:16:17;11.90;;;8.17;;
12163;SDS011;6145;50.192;10.064;2024-01-06T09:18:44;11.20;;;8.17;;
12163;SDS011;6145;50.192;10.064;2024-01-06T09:21:11;12.47;;;8.73;;
12163;SDS011;6145;50.192;10.064;2024-01-06T09:23:38;12.00;;;9.20;;
12163;SDS011;6145;50.192;10.064;2024-01-06T09:26:05;13.33;;;9.20;;
12163;SDS011;6145;50.192;10.064;2024-01-06T09:28:31;17.10;;;11.37;;
12163;SDS011;6145;50.192;10.064;2024-01-06T09:31:00;15.37;;;9.67;;
12163;SDS011;6145;50.192;10.064;2024-01-06T09:33:26;11.97;;;8.43;;
12163;SDS011;6145;50.192;10.064;2024-01-06T09:35:53;12.53;;;9.00;;
12163;SDS011;6145;50.192;10.064;2024-01-06T09:38:20;11.40;;;7.77;;
12163;SDS011;6145;50.192;10.064;2024-01-06T09:40:48;10.03;;;8.33;;
12163;SDS011;6145;50.192;10.064;2024-01-06T09:43:14;11.90;;;8.40;;
12163;SDS011;6145;50.192;10.064;2024-01-06T09:45:41;11.57;;;9.17;;
12163;SDS011;6145;50.192;10.064;2024-01-06T09:48:11;13.73;;;9.77;;
12163;SDS011;6145;50.192;10.064;2024-01-06T09:50:40;10.20;;;8.20;;
12163;SDS011;6145;50.192;10.064;2024-01-06T09:53:08;11.50;;;7.53;;
12163;SDS011;6145;50.192;10.064;2024-01-06T09:55:37;12.77;;;9.47;;
12163;SDS011;6145;50.192;10.064;2024-01-06T09:58:04;14.53;;;9.23;;
12163;SDS011;6145;50.192;10.064;2024-01-06T10:00:32;11.10;;;7.53;;
12163;SDS011;6145;50.192;10.064;2024-01-06T10:02:58;11.47;;;7.53;;
12163;SDS011;6145;50.192;10.064;2024-01-06T10:05:28;14.83;;;8.00;;
12163;SDS011;6145;50.192;10.064;2024-01-06T10:07:55;16.13;;;9.20;;
12163;SDS011;6145;50.192;10.064;2024-01-06T10:10:22;11.13;;;8.70;;
12163;SDS011;6145;50.192;10.064;2024-01-06T10:12:52;23.50;;;12.27;;
12163;SDS011;6145;50.192;10.064;2024-01-06T10:15:20;20.27;;;12.07;;
12163;SDS011;6145;50.192;10.064;2024-01-06T10:18:07;33.53;;;14.93;;
12163;SDS011;6145;50.192;10.064;2024-01-06T10:20:40;65.80;;;27.50;;
12163;SDS011;6145;50.192;10.064;2024-01-06T10:23:07;29.97;;;16.53;;
12163;SDS011;6145;50.192;10.064;2024-01-06T10:25:34;38.60;;;20.80;;
12163;SDS011;6145;50.192;10.064;2024-01-06T10:28:02;39.63;;;21.37;;
12163;SDS011;6145;50.192;10.064;2024-01-06T10:30:29;13.30;;;9.73;;
12163;SDS011;6145;50.192;10.064;2024-01-06T10:32:56;17.80;;;8.93;;
12163;SDS011;6145;50.192;10.064;2024-01-06T10:35:23;16.53;;;11.10;;
12163;SDS011;6145;50.192;10.064;2024-01-06T10:37:52;19.57;;;13.47;;
12163;SDS011;6145;50.192;10.064;2024-01-06T10:40:20;10.87;;;7.27;;
12163;SDS011;6145;50.192;10.064;2024-01-06T10:42:47;14.27;;;9.23;;
12163;SDS011;6145;50.192;10.064;2024-01-06T10:45:14;12.60;;;8.23;;
12163;SDS011;6145;50.192;10.064;2024-01-06T10:47:42;11.73;;;6.67;;
12163;SDS011;6145;50.192;10.064;2024-01-06T10:50:10;10.33;;;7.97;;
12163;SDS011;6145;50.192;10.064;2024-01-06T10:52:38;12.83;;;8.27;;
12163;SDS011;6145;50.192;10.064;2024-01-06T10:55:07;15.77;;;8.43;;
12163;SDS011;6145;50.192;10.064;2024-01-06T10:57:38;10.17;;;7.10;;
12163;SDS011;6145;50.192;10.064;2024-01-06T11:00:09;7.17;;;5.97;;
12163;SDS011;6145;50.192;10.064;2024-01-06T11:02:36;9.30;;;6.57;;
12163;SDS011;6145;50.192;10.064;2024-01-06T11:05:05;8.20;;;5.60;;
12163;SDS011;6145;50.192;10.064;2024-01-06T11:07:33;11.37;;;7.10;;
12163;SDS011;6145;50.192;10.064;2024-01-06T11:10:08;8.77;;;4.93;;
12163;SDS011;6145;50.192;10.064;2024-01-06T11:12:41;6.83;;;4.83;;
12163;SDS011;6145;50.192;10.064;2024-01-06T11:15:08;7.50;;;5.43;;
12163;SDS011;6145;50.192;10.064;2024-01-06T11:17:50;7.43;;;5.00;;
12163;SDS011;6145;50.192;10.064;2024-01-06T11:20:23;12.47;;;10.33;;
12163;SDS011;6145;50.192;10.064;2024-01-06T11:22:51;9.07;;;7.30;;
12163;SDS011;6145;50.192;10.064;2024-01-06T11:25:21;10.10;;;5.63;;
12163;SDS011;6145;50.192;10.064;2024-01-06T11:27:49;5.33;;;4.77;;
12163;SDS011;6145;50.192;10.064;2024-01-06T11:30:22;10.30;;;5.17;;
12163;SDS011;6145;50.192;10.064;2024-01-06T11:32:51;8.00;;;5.40;;
12163;SDS011;6145;50.192;10.064;2024-01-06T11:35:18;7.40;;;4.17;;
12163;SDS011;6145;50.192;10.064;2024-01-06T11:37:52;8.97;;;4.30;;
12163;SDS011;6145;50.192;10.064;2024-01-06T11:40:23;4.50;;;3.93;;
12163;SDS011;6145;50.192;10.064;2024-01-06T11:42:59;4.50;;;3.03;;
12163;SDS011;6145;50.192;10.064;2024-01-06T11:45:28;8.03;;;5.23;;
12163;SDS011;6145;50.192;10.064;2024-01-06T11:47:57;5.80;;;4.10;;
12163;SDS011;6145;50.192;10.064;2024-01-06T11:50:27;5.90;;;3.67;;
12163;SDS011;6145;50.192;10.064;2024-01-06T11:52:55;8.07;;;3.93;;
12163;SDS011;6145;50.192;10.064;2024-01-06T11:55:24;5.23;;;3.00;;
12163;SDS011;6145;50.192;10.064;2024-01-06T11:57:53;4.63;;;3.10;;
12163;SDS011;6145;50.192;10.064;2024-01-06T12:00:21;4.17;;;3.37;;
12163;SDS011;6145;50.192;10.064;2024-01-06T12:02:48;5.77;;;4.37;;
12163;SDS011;6145;50.192;10.064;2024-01-06T12:05:15;7.23;;;3.57;;
12163;SDS011;6145;50.192;10.064;2024-01-06T12:07:43;5.07;;;3.77;;
12163;SDS011;6145;50.192;10.064;2024-01-06T12:10:19;5.90;;;3.60;;
12163;SDS011;6145;50.192;10.064;2024-01-06T12:12:55;6.70;;;3.80;;
12163;SDS011;6145;50.192;10.064;2024-01-06T12:15:24;5.07;;;3.90;;
12163;SDS011;6145;50.192;10.064;2024-01-06T12:17:51;5.27;;;3.83;;
12163;SDS011;6145;50.192;10.064;2024-01-06T12:20:18;6.80;;;4.30;;
12163;SDS011;6145;50.192;10.064;2024-01-06T12:22:45;7.10;;;3.80;;
12163;SDS011;6145;50.192;10.064;2024-01-06T12:25:12;7.20;;;4.80;;
12163;SDS011;6145;50.192;10.064;2024-01-06T12:27:42;5.87;;;4.47;;
12163;SDS011;6145;50.192;10.064;2024-01-06T12:30:13;5.47;;;4.13;;
12163;SDS011;6145;50.192;10.064;2024-01-06T12:32:49;10.80;;;5.30;;
12163;SDS011;6145;50.192;10.064;2024-01-06T12:35:19;6.43;;;4.67;;
12163;SDS011;6145;50.192;10.064;2024-01-06T12:37:47;8.30;;;4.57;;
12163;SDS011;6145;50.192;10.064;2024-01-06T12:40:14;6.47;;;4.20;;
12163;SDS011;6145;50.192;10.064;2024-01-06T12:42:44;9.33;;;4.13;;
12163;SDS011;6145;50.192;10.064;2024-01-06T12:45:11;5.70;;;4.07;;
12163;SDS011;6145;50.192;10.064;2024-01-06T12:47:41;4.00;;;3.50;;
12163;SDS011;6145;50.192;10.064;2024-01-06T12:50:08;5.33;;;4.17;;
12163;SDS011;6145;50.192;10.064;2024-01-06T12:52:35;7.00;;;4.17;;
12163;SDS011;6145;50.192;10.064;2024-01-06T12:55:04;6.30;;;3.90;;
12163;SDS011;6145;50.192;10.064;2024-01-06T12:57:31;6.47;;;4.23;;
12163;SDS011;6145;50.192;10.064;2024-01-06T12:59:58;6.90;;;4.37;;
12163;SDS011;6145;50.192;10.064;2024-01-06T13:02:27;5.60;;;5.03;;
12163;SDS011;6145;50.192;10.064;2024-01-06T13:04:54;6.87;;;4.03;;
12163;SDS011;6145;50.192;10.064;2024-01-06T13:07:21;4.50;;;4.10;;
12163;SDS011;6145;50.192;10.064;2024-01-06T13:09:48;7.40;;;4.43;;
12163;SDS011;6145;50.192;10.064;2024-01-06T13:12:15;8.73;;;4.50;;
12163;SDS011;6145;50.192;10.064;2024-01-06T13:14:43;5.00;;;3.97;;
12163;SDS011;6145;50.192;10.064;2024-01-06T13:17:12;5.43;;;3.83;;
12163;SDS011;6145;50.192;10.064;2024-01-06T13:19:41;5.20;;;3.90;;
12163;SDS011;6145;50.192;10.064;2024-01-06T13:22:08;4.60;;;3.87;;
12163;SDS011;6145;50.192;10.064;2024-01-06T13:24:34;5.10;;;4.03;;
12163;SDS011;6145;50.192;10.064;2024-01-06T13:27:01;5.63;;;3.73;;
12163;SDS011;6145;50.192;10.064;2024-01-06T13:29:31;5.57;;;4.10;;
12163;SDS011;6145;50.192;10.064;2024-01-06T13:31:59;4.80;;;4.40;;
12163;SDS011;6145;50.192;10.064;2024-01-06T13:34:26;4.60;;;3.50;;
12163;SDS011;6145;50.192;10.064;2024-01-06T13:36:56;5.50;;;3.90;;
12163;SDS011;6145;50.192;10.064;2024-01-06T13:39:23;6.23;;;3.97;;
12163;SDS011;6145;50.192;10.064;2024-01-06T13:41:50;5.53;;;3.77;;
12163;SDS011;6145;50.192;10.064;2024-01-06T13:44:17;7.33;;;5.13;;
12163;SDS011;6145;50.192;10.064;2024-01-06T13:46:43;6.50;;;4.13;;
12163;SDS011;6145;50.192;10.064;2024-01-06T13:49:11;5.10;;;3.83;;
12163;SDS011;6145;50.192;10.064;2024-01-06T13:51:38;4.93;;;3.33;;
12163;SDS011;6145;50.192;10.064;2024-01-06T13:54:06;6.23;;;3.20;;
12163;SDS011;6145;50.192;10.064;2024-01-06T13:56:34;4.27;;;3.13;;
12163;SDS011;6145;50.192;10.064;2024-01-06T13:59:01;5.07;;;4.03;;
12163;SDS011;6145;50.192;10.064;2024-01-06T14:01:28;5.33;;;3.50;;
12163;SDS011;6145;50.192;10.064;2024-01-06T14:03:56;5.07;;;3.50;;
12163;SDS011;6145;50.192;10.064;2024-01-06T14:06:23;15.60;;;7.20;;
12163;SDS011;6145;50.192;10.064;2024-01-06T14:08:50;8.33;;;5.17;;
12163;SDS011;6145;50.192;10.064;2024-01-06T14:11:19;7.63;;;5.60;;
12163;SDS011;6145;50.192;10.064;2024-01-06T14:13:46;10.00;;;4.80;;
12163;SDS011;6145;50.192;10.064;2024-01-06T14:16:14;6.87;;;3.63;;
12163;SDS011;6145;50.192;10.064;2024-01-06T14:18:41;7.13;;;3.60;;
12163;SDS011;6145;50.192;10.064;2024-01-06T14:21:08;6.40;;;3.97;;
12163;SDS011;6145;50.192;10.064;2024-01-06T14:23:35;8.07;;;4.63;;
12163;SDS011;6145;50.192;10.064;2024-01-06T14:26:02;6.33;;;4.60;;
12163;SDS011;6145;50.192;10.064;2024-01-06T14:28:31;6.57;;;5.53;;
12163;SDS011;6145;50.192;10.064;2024-01-06T14:30:58;11.43;;;6.10;;
12163;SDS011;6145;50.192;10.064;2024-01-06T14:33:26;11.80;;;7.50;;
12163;SDS011;6145;50.192;10.064;2024-01-06T14:35:53;8.23;;;5.23;;
12163;SDS011;6145;50.192;10.064;2024-01-06T14:38:20;5.50;;;3.93;;
12163;SDS011;6145;50.192;10.064;2024-01-06T14:40:46;7.43;;;4.73;;
12163;SDS011;6145;50.192;10.064;2024-01-06T14:43:13;8.57;;;4.17;;
12163;SDS011;6145;50.192;10.064;2024-01-06T14:45:41;6.80;;;4.13;;
12163;SDS011;6145;50.192;10.064;2024-01-06T14:48:08;6.77;;;3.47;;
12163;SDS011;6145;50.192;10.064;2024-01-06T14:50:35;8.50;;;3.50;;
12163;SDS011;6145;50.192;10.064;2024-01-06T14:53:02;19.97;;;11.63;;
12163;SDS011;6145;50.192;10.064;2024-01-06T14:55:29;11.53;;;6.70;;
12163;SDS011;6145;50.192;10.064;2024-01-06T14:57:56;8.13;;;3.97;;
12163;SDS011;6145;50.192;10.064;2024-01-06T15:00:23;6.43;;;3.97;;
12163;SDS011;6145;50.192;10.064;2024-01-06T15:02:51;5.43;;;3.57;;
12163;SDS011;6145;50.192;10.064;2024-01-06T15:05:18;7.60;;;3.73;;
12163;SDS011;6145;50.192;10.064;2024-01-06T15:07:45;5.23;;;3.97;;
12163;SDS011;6145;50.192;10.064;2024-01-06T15:10:12;6.00;;;3.77;;
12163;SDS011;6145;50.192;10.064;2024-01-06T15:12:39;6.00;;;4.00;;
12163;SDS011;6145;50.192;10.064;2024-01-06T15:15:07;4.77;;;3.23;;
12163;SDS011;6145;50.192;10.064;2024-01-06T15:17:34;5.90;;;3.73;;
12163;SDS011;6145;50.192;10.064;2024-01-06T15:20:03;6.47;;;3.60;;